createdAt,value
2023-02-28T00:00:55.909Z,99.99
2023-02-28T00:01:55.930Z,99.99
2023-02-28T00:02:55.857Z,99.99
2023-02-28T00:03:55.840Z,99.99
2023-02-28T00:04:55.819Z,99.99
2023-02-28T00:05:55.777Z,99.99
2023-02-28T00:06:55.743Z,99.99
2023-02-28T00:07:55.736Z,99.99
2023-02-28T00:08:55.695Z,99.99
2023-02-28T00:09:55.674Z,99.99
2023-02-28T00:10:55.641Z,99.99
2023-02-28T00:11:55.616Z,99.99
2023-02-28T00:12:55.576Z,99.99
2023-02-28T00:13:55.557Z,99.99
2023-02-28T00:14:55.519Z,99.99
2023-02-28T00:15:55.507Z,99.99
2023-02-28T00:16:55.504Z,99.99
2023-02-28T00:17:55.440Z,99.99
2023-02-28T00:18:55.406Z,99.99
2023-02-28T00:19:55.383Z,99.99
2023-02-28T00:20:55.349Z,99.99
2023-02-28T00:21:55.329Z,99.99
2023-02-28T00:22:55.289Z,99.99
2023-02-28T00:23:55.268Z,99.99
2023-02-28T00:24:55.230Z,99.99
2023-02-28T00:25:55.219Z,99.99
2023-02-28T00:26:55.185Z,99.99
2023-02-28T00:27:55.154Z,99.99
2023-02-28T00:28:55.118Z,99.99
2023-02-28T00:29:55.091Z,99.99
2023-02-28T00:30:55.113Z,99.99
2023-02-28T00:31:55.117Z,99.99
2023-02-28T00:32:55.018Z,99.99
2023-02-28T00:33:54.992Z,99.99
2023-02-28T00:34:54.961Z,99.99
2023-02-28T00:35:54.953Z,99.99
2023-02-28T00:36:54.914Z,99.99
2023-02-28T00:37:54.877Z,99.99
2023-02-28T00:38:54.842Z,99.99
2023-02-28T00:39:54.815Z,99.99
2023-02-28T00:40:54.782Z,99.99
2023-02-28T00:41:54.767Z,99.99
2023-02-28T00:42:54.721Z,99.99
2023-02-28T00:43:54.720Z,99.99
2023-02-28T00:44:54.676Z,99.99
2023-02-28T00:45:54.680Z,99.99
2023-02-28T00:46:54.608Z,99.99
2023-02-28T00:47:54.613Z,99.99
2023-02-28T00:48:54.546Z,99.99
2023-02-28T00:49:54.521Z,99.99
2023-02-28T00:50:54.501Z,99.99
2023-02-28T00:51:54.467Z,99.99
2023-02-28T00:52:54.443Z,99.99
2023-02-28T00:53:54.409Z,99.99
2023-02-28T00:54:54.381Z,99.99
2023-02-28T00:55:54.362Z,99.99
2023-02-28T00:56:54.321Z,99.99
2023-02-28T00:57:54.301Z,99.99
2023-02-28T00:58:54.272Z,99.99
2023-02-28T00:59:54.249Z,99.99
2023-02-28T01:00:54.209Z,99.99
2023-02-28T01:01:54.201Z,99.99
2023-02-28T01:02:54.148Z,99.99
2023-02-28T01:03:54.157Z,99.99
2023-02-28T01:04:54.094Z,99.99
2023-02-28T01:05:54.188Z,99.99
2023-02-28T01:06:54.049Z,99.99
2023-02-28T01:07:54.007Z,99.99
2023-02-28T01:08:53.980Z,99.99
2023-02-28T01:09:53.957Z,99.99
2023-02-28T01:10:53.919Z,99.99
2023-02-28T01:11:53.894Z,99.99
2023-02-28T01:12:53.858Z,99.99
2023-02-28T01:13:53.840Z,99.99
2023-02-28T01:14:53.813Z,99.99
2023-02-28T01:15:53.821Z,99.99
2023-02-28T01:16:53.763Z,99.99
2023-02-28T01:17:53.732Z,99.99
2023-02-28T01:18:53.691Z,99.99
2023-02-28T01:19:53.683Z,99.99
2023-02-28T01:20:53.647Z,99.99
2023-02-28T01:21:53.615Z,99.99
2023-02-28T01:22:53.585Z,99.99
2023-02-28T01:23:53.549Z,99.99
2023-02-28T01:24:53.540Z,99.99
2023-02-28T01:25:53.494Z,99.99
2023-02-28T01:26:53.455Z,99.99
2023-02-28T01:27:53.455Z,99.99
2023-02-28T01:28:53.412Z,99.99
2023-02-28T01:29:53.383Z,99.99
2023-02-28T01:30:53.421Z,99.99
2023-02-28T01:31:53.354Z,99.99
2023-02-28T01:32:53.284Z,99.99
2023-02-28T01:33:53.260Z,99.99
2023-02-28T01:34:53.225Z,99.99
2023-02-28T01:35:53.244Z,99.99
2023-02-28T01:36:53.170Z,99.99
2023-02-28T01:37:53.545Z,99.99
2023-02-28T01:38:53.111Z,99.99
2023-02-28T01:39:53.082Z,99.99
2023-02-28T01:40:53.048Z,99.99
2023-02-28T01:41:53.020Z,99.99
2023-02-28T01:42:52.991Z,99.99
2023-02-28T01:43:52.970Z,99.99
2023-02-28T01:44:52.932Z,99.99
2023-02-28T01:45:52.910Z,99.99
2023-02-28T01:46:52.895Z,99.99
2023-02-28T01:47:52.848Z,99.99
2023-02-28T01:48:52.840Z,99.99
2023-02-28T01:49:52.796Z,99.99
2023-02-28T01:50:52.764Z,99.99
2023-02-28T01:51:52.747Z,99.99
2023-02-28T01:52:52.718Z,99.99
2023-02-28T01:53:52.726Z,99.99
2023-02-28T01:54:52.696Z,99.99
2023-02-28T01:55:52.613Z,99.99
2023-02-28T01:56:52.583Z,99.99
2023-02-28T01:57:52.573Z,99.99
2023-02-28T01:58:52.520Z,99.99
2023-02-28T01:59:52.496Z,99.99
2023-02-28T02:00:52.459Z,99.99
2023-02-28T02:01:52.511Z,99.99
2023-02-28T02:02:52.430Z,99.99
2023-02-28T02:03:52.381Z,99.99
2023-02-28T02:04:52.341Z,99.99
2023-02-28T02:05:52.315Z,99.99
2023-02-28T02:06:52.283Z,99.99
2023-02-28T02:07:52.265Z,99.99
2023-02-28T02:08:52.221Z,99.99
2023-02-28T02:09:52.198Z,99.99
2023-02-28T02:10:52.183Z,99.99
2023-02-28T02:11:52.172Z,99.99
2023-02-28T02:12:52.113Z,99.99
2023-02-28T02:13:52.088Z,99.99
2023-02-28T02:14:52.049Z,99.99
2023-02-28T02:15:52.071Z,99.99
2023-02-28T02:16:51.998Z,99.99
2023-02-28T02:17:51.965Z,99.99
2023-02-28T02:18:51.930Z,99.99
2023-02-28T02:19:51.908Z,99.99
2023-02-28T02:20:51.889Z,99.99
2023-02-28T02:21:51.897Z,99.99
2023-02-28T02:22:51.810Z,99.99
2023-02-28T02:23:51.790Z,99.99
2023-02-28T02:24:51.758Z,99.99
2023-02-28T02:25:51.726Z,99.99
2023-02-28T02:26:51.704Z,99.99
2023-02-28T02:27:51.677Z,99.99
2023-02-28T02:28:51.641Z,99.99
2023-02-28T02:29:51.640Z,99.99
2023-02-28T02:30:51.579Z,99.99
2023-02-28T02:31:51.704Z,99.99
2023-02-28T02:32:51.544Z,99.99
2023-02-28T02:33:51.503Z,99.99
2023-02-28T02:34:51.494Z,99.99
2023-02-28T02:35:51.447Z,99.99
2023-02-28T02:36:51.405Z,99.99
2023-02-28T02:37:51.392Z,99.99
2023-02-28T02:38:51.346Z,99.99
2023-02-28T02:39:51.317Z,99.99
2023-02-28T02:40:51.278Z,99.99
2023-02-28T02:41:51.257Z,99.99
2023-02-28T02:42:51.223Z,99.99
2023-02-28T02:43:51.198Z,99.99
2023-02-28T02:44:51.159Z,99.99
2023-02-28T02:45:51.139Z,99.99
2023-02-28T02:46:51.169Z,99.99
2023-02-28T02:47:51.080Z,99.99
2023-02-28T02:48:51.062Z,99.99
2023-02-28T02:49:51.020Z,99.99
2023-02-28T02:50:50.987Z,99.99
2023-02-28T02:51:50.963Z,99.99
2023-02-28T02:52:50.926Z,99.99
2023-02-28T02:53:50.903Z,99.99
2023-02-28T02:54:50.885Z,99.99
2023-02-28T02:55:50.841Z,99.99
2023-02-28T02:56:50.815Z,99.99
2023-02-28T02:57:50.801Z,99.99
2023-02-28T02:58:50.747Z,99.99
2023-02-28T02:59:50.732Z,99.99
2023-02-28T03:00:50.748Z,99.99
2023-02-28T03:01:50.665Z,99.99
2023-02-28T03:02:50.629Z,99.99
2023-02-28T03:03:50.627Z,99.99
2023-02-28T03:04:50.576Z,99.99
2023-02-28T03:05:50.553Z,99.99
2023-02-28T03:06:50.509Z,99.99
2023-02-28T03:07:50.487Z,99.99
2023-02-28T03:08:50.455Z,99.99
2023-02-28T03:09:50.427Z,99.99
2023-02-28T03:10:50.398Z,99.99
2023-02-28T03:11:50.363Z,99.99
2023-02-28T03:12:50.345Z,99.99
2023-02-28T03:13:50.307Z,99.99
2023-02-28T03:14:50.290Z,99.99
2023-02-28T03:15:50.269Z,99.99
2023-02-28T03:16:50.211Z,99.99
2023-02-28T03:17:50.189Z,99.99
2023-02-28T03:18:50.154Z,99.99
2023-02-28T03:19:50.132Z,99.99
2023-02-28T03:20:50.099Z,99.99
2023-02-28T03:21:50.088Z,99.99
2023-02-28T03:22:50.087Z,99.99
2023-02-28T03:23:50.017Z,99.99
2023-02-28T03:24:49.991Z,99.99
2023-02-28T03:25:49.952Z,99.99
2023-02-28T03:26:49.933Z,99.99
2023-02-28T03:27:49.900Z,99.99
2023-02-28T03:28:49.857Z,99.99
2023-02-28T03:29:49.836Z,99.99
2023-02-28T03:30:49.805Z,99.99
2023-02-28T03:31:49.920Z,99.99
2023-02-28T03:32:49.772Z,99.99
2023-02-28T03:33:49.716Z,99.99
2023-02-28T03:34:49.688Z,99.99
2023-02-28T03:35:49.677Z,99.99
2023-02-28T03:36:49.648Z,99.99
2023-02-28T03:37:49.624Z,99.99
2023-02-28T03:38:49.581Z,99.99
2023-02-28T03:39:49.540Z,99.99
2023-02-28T03:40:49.508Z,99.99
2023-02-28T03:41:49.482Z,99.99
2023-02-28T03:42:49.444Z,99.99
2023-02-28T03:43:49.419Z,99.99
2023-02-28T03:44:49.387Z,99.99
2023-02-28T03:45:49.398Z,99.99
2023-02-28T03:46:49.326Z,99.99
2023-02-28T03:47:49.311Z,99.99
2023-02-28T03:48:49.277Z,99.99
2023-02-28T03:49:49.251Z,99.99
2023-02-28T03:50:49.215Z,99.99
2023-02-28T03:51:49.184Z,99.99
2023-02-28T03:52:49.147Z,99.99
2023-02-28T03:53:49.137Z,99.99
2023-02-28T03:54:49.092Z,99.99
2023-02-28T03:55:49.065Z,99.99
2023-02-28T03:56:49.032Z,99.99
2023-02-28T03:57:49.003Z,99.99
2023-02-28T03:58:48.973Z,99.99
2023-02-28T03:59:48.946Z,99.99
2023-02-28T04:00:48.908Z,99.99
2023-02-28T04:01:48.910Z,99.99
2023-02-28T04:02:48.859Z,99.99
2023-02-28T04:03:48.827Z,99.99
2023-02-28T04:04:48.949Z,99.99
2023-02-28T04:05:48.769Z,99.99
2023-02-28T04:06:50.241Z,99.99
2023-02-28T04:07:48.709Z,99.99
2023-02-28T04:08:48.675Z,99.99
2023-02-28T04:09:48.662Z,99.99
2023-02-28T04:10:48.620Z,99.99
2023-02-28T04:11:48.597Z,99.99
2023-02-28T04:12:48.558Z,99.99
2023-02-28T04:13:48.521Z,99.99
2023-02-28T04:14:48.494Z,99.99
2023-02-28T04:15:48.501Z,99.99
2023-02-28T04:16:48.476Z,99.99
2023-02-28T04:17:48.402Z,99.99
2023-02-28T04:18:48.379Z,99.99
2023-02-28T04:19:48.346Z,99.99
2023-02-28T04:20:48.323Z,99.99
2023-02-28T04:21:48.285Z,99.99
2023-02-28T04:22:48.261Z,99.99
2023-02-28T04:23:48.248Z,99.99
2023-02-28T04:24:48.195Z,99.99
2023-02-28T04:25:48.171Z,99.99
2023-02-28T04:26:48.147Z,99.99
2023-02-28T04:27:48.116Z,99.99
2023-02-28T04:28:48.085Z,99.99
2023-02-28T04:29:48.050Z,99.99
2023-02-28T04:30:48.018Z,99.99
2023-02-28T04:31:48.059Z,99.99
2023-02-28T04:32:47.969Z,99.99
2023-02-28T04:33:47.934Z,99.99
2023-02-28T04:34:47.917Z,99.99
2023-02-28T04:35:47.985Z,99.99
2023-02-28T04:36:47.855Z,99.99
2023-02-28T04:37:47.807Z,99.99
2023-02-28T04:38:47.785Z,99.99
2023-02-28T04:39:47.774Z,99.99
2023-02-28T04:40:47.726Z,99.99
2023-02-28T04:41:47.688Z,99.99
2023-02-28T04:42:47.681Z,99.99
2023-02-28T04:43:47.634Z,99.99
2023-02-28T04:44:47.607Z,99.99
2023-02-28T04:45:47.603Z,99.99
2023-02-28T04:46:47.538Z,99.99
2023-02-28T04:47:47.519Z,99.99
2023-02-28T04:48:47.486Z,99.99
2023-02-28T04:49:47.472Z,99.99
2023-02-28T04:50:47.431Z,99.99
2023-02-28T04:51:47.390Z,99.99
2023-02-28T04:52:47.358Z,99.99
2023-02-28T04:53:47.326Z,99.99
2023-02-28T04:54:47.305Z,99.99
2023-02-28T04:55:47.265Z,99.99
2023-02-28T04:56:47.242Z,99.99
2023-02-28T04:57:47.208Z,99.99
2023-02-28T04:58:47.181Z,99.99
2023-02-28T04:59:47.150Z,99.99
2023-02-28T05:00:47.124Z,99.99
2023-02-28T05:01:47.084Z,99.99
2023-02-28T05:02:47.071Z,99.99
2023-02-28T05:03:47.033Z,99.99
2023-02-28T05:04:47.088Z,99.99
2023-02-28T05:05:46.974Z,99.99
2023-02-28T05:06:46.951Z,99.99
2023-02-28T05:07:46.942Z,99.99
2023-02-28T05:08:46.903Z,99.99
2023-02-28T05:09:46.849Z,99.99
2023-02-28T05:10:46.828Z,99.99
2023-02-28T05:11:46.785Z,99.99
2023-02-28T05:12:46.761Z,99.99
2023-02-28T05:13:46.726Z,99.99
2023-02-28T05:14:46.713Z,99.99
2023-02-28T05:15:46.686Z,99.99
2023-02-28T05:16:46.646Z,99.99
2023-02-28T05:17:46.609Z,99.99
2023-02-28T05:18:46.609Z,99.99
2023-02-28T05:19:46.565Z,99.99
2023-02-28T05:20:46.526Z,99.99
2023-02-28T05:21:46.488Z,99.99
2023-02-28T05:22:46.490Z,99.99
2023-02-28T05:23:48.137Z,99.99
2023-02-28T05:24:46.409Z,99.99
2023-02-28T05:25:46.373Z,99.99
2023-02-28T05:26:46.342Z,99.99
2023-02-28T05:27:46.320Z,99.99
2023-02-28T05:28:46.283Z,99.99
2023-02-28T05:29:46.252Z,99.99
2023-02-28T05:30:46.229Z,99.99
2023-02-28T05:31:46.306Z,99.99
2023-02-28T05:32:46.166Z,99.99
2023-02-28T05:33:46.134Z,99.99
2023-02-28T05:34:46.125Z,99.99
2023-02-28T05:35:46.156Z,99.99
2023-02-28T05:36:46.070Z,99.99
2023-02-28T05:37:46.016Z,99.99
2023-02-28T05:38:45.982Z,99.99
2023-02-28T05:39:45.952Z,99.99
2023-02-28T05:40:45.928Z,99.99
2023-02-28T05:41:45.898Z,99.99
2023-02-28T05:42:45.862Z,99.99
2023-02-28T05:43:45.830Z,99.99
2023-02-28T05:44:45.806Z,99.99
2023-02-28T05:45:45.847Z,99.99
2023-02-28T05:46:45.751Z,99.99
2023-02-28T05:47:45.713Z,99.99
2023-02-28T05:48:45.735Z,99.99
2023-02-28T05:49:45.648Z,99.99
2023-02-28T05:50:45.630Z,99.99
2023-02-28T05:51:45.594Z,99.99
2023-02-28T05:52:45.566Z,99.99
2023-02-28T05:53:45.532Z,99.99
2023-02-28T05:54:45.507Z,99.99
2023-02-28T05:55:45.477Z,99.99
2023-02-28T05:56:45.449Z,99.99
2023-02-28T05:57:45.426Z,99.99
2023-02-28T05:58:45.390Z,99.99
2023-02-28T05:59:45.354Z,99.99
2023-02-28T06:00:45.333Z,99.99
2023-02-28T06:01:45.296Z,99.99
2023-02-28T06:02:45.276Z,99.99
2023-02-28T06:03:45.291Z,99.99
2023-02-28T06:04:45.214Z,99.99
2023-02-28T06:05:45.178Z,99.99
2023-02-28T06:06:45.153Z,99.99
2023-02-28T06:07:45.126Z,99.99
2023-02-28T06:08:45.093Z,99.99
2023-02-28T06:09:45.073Z,99.99
2023-02-28T06:10:45.033Z,99.99
2023-02-28T06:11:45.005Z,99.99
2023-02-28T06:12:44.997Z,99.99
2023-02-28T06:13:44.942Z,99.99
2023-02-28T06:14:44.923Z,99.99
2023-02-28T06:15:44.879Z,99.99
2023-02-28T06:16:44.896Z,99.99
2023-02-28T06:17:44.839Z,99.99
2023-02-28T06:18:44.801Z,99.99
2023-02-28T06:19:44.762Z,99.99
2023-02-28T06:20:44.736Z,99.99
2023-02-28T06:21:44.712Z,99.99
2023-02-28T06:22:44.680Z,99.99
2023-02-28T06:23:44.649Z,99.99
2023-02-28T06:24:44.625Z,99.99
2023-02-28T06:25:44.585Z,99.99
2023-02-28T06:26:44.560Z,99.99
2023-02-28T06:27:44.531Z,99.99
2023-02-28T06:28:44.498Z,99.99
2023-02-28T06:29:44.464Z,99.99
2023-02-28T06:30:46.442Z,99.99
2023-02-28T06:31:44.470Z,99.99
2023-02-28T06:32:44.381Z,99.99
2023-02-28T06:33:44.367Z,99.99
2023-02-28T06:34:44.331Z,99.99
2023-02-28T06:35:44.301Z,99.99
2023-02-28T06:36:44.266Z,99.99
2023-02-28T06:37:44.235Z,99.99
2023-02-28T06:38:44.209Z,99.99
2023-02-28T06:39:44.174Z,99.99
2023-02-28T06:40:44.141Z,99.99
2023-02-28T06:41:54.738Z,99.99
2023-02-28T06:42:44.100Z,99.99
2023-02-28T06:43:44.053Z,99.99
2023-02-28T06:44:44.036Z,99.99
2023-02-28T06:45:43.991Z,99.99
2023-02-28T06:46:43.974Z,99.99
2023-02-28T06:47:43.942Z,99.99
2023-02-28T06:48:43.924Z,99.99
2023-02-28T06:49:43.890Z,99.99
2023-02-28T06:50:43.854Z,99.99
2023-02-28T06:51:43.823Z,99.99
2023-02-28T06:52:43.790Z,99.99
2023-02-28T06:53:43.765Z,99.99
2023-02-28T06:54:43.734Z,99.99
2023-02-28T06:55:43.700Z,99.99
2023-02-28T06:56:43.676Z,99.99
2023-02-28T06:57:43.637Z,99.99
2023-02-28T06:58:43.613Z,99.99
2023-02-28T06:59:43.582Z,99.99
2023-02-28T07:00:43.560Z,99.99
2023-02-28T07:01:43.536Z,99.99
2023-02-28T07:02:43.502Z,99.99
2023-02-28T07:03:43.470Z,99.99
2023-02-28T07:04:43.468Z,99.99
2023-02-28T07:05:43.400Z,99.99
2023-02-28T07:06:43.388Z,99.99
2023-02-28T07:07:43.352Z,99.99
2023-02-28T07:08:43.325Z,99.99
2023-02-28T07:09:43.294Z,99.99
2023-02-28T07:10:43.271Z,99.99
2023-02-28T07:11:43.246Z,99.99
2023-02-28T07:12:43.202Z,99.99
2023-02-28T07:13:43.167Z,99.99
2023-02-28T07:14:43.152Z,99.99
2023-02-28T07:15:44.331Z,99.99
2023-02-28T07:16:43.083Z,99.99
2023-02-28T07:17:43.056Z,99.99
2023-02-28T07:18:43.032Z,99.99
2023-02-28T07:19:43.000Z,99.99
2023-02-28T07:20:42.970Z,99.99
2023-02-28T07:21:42.938Z,99.99
2023-02-28T07:22:42.950Z,99.99
2023-02-28T07:23:42.899Z,99.99
2023-02-28T07:24:42.855Z,99.99
2023-02-28T07:25:42.847Z,99.99
2023-02-28T07:27:42.781Z,99.99
2023-02-28T07:28:42.746Z,99.99
2023-02-28T07:29:42.715Z,99.99
2023-02-28T07:30:42.684Z,99.99
2023-02-28T07:31:42.679Z,99.99
2023-02-28T07:32:45.009Z,99.99
2023-02-28T07:33:42.737Z,99.99
2023-02-28T07:34:42.572Z,99.99
2023-02-28T07:35:42.560Z,99.99
2023-02-28T07:36:42.525Z,99.99
2023-02-28T07:37:42.501Z,99.99
2023-02-28T07:38:42.477Z,99.99
2023-02-28T07:39:42.443Z,99.99
2023-02-28T07:40:42.408Z,99.99
2023-02-28T07:41:42.375Z,99.99
2023-02-28T07:42:42.354Z,99.99
2023-02-28T07:43:42.324Z,99.99
2023-02-28T07:44:42.303Z,99.99
2023-02-28T07:45:42.269Z,99.99
2023-02-28T07:46:42.290Z,99.99
2023-02-28T07:47:42.218Z,99.99
2023-02-28T07:48:42.205Z,99.99
2023-02-28T07:49:42.190Z,99.99
2023-02-28T07:50:42.150Z,99.99
2023-02-28T07:51:42.110Z,99.99
2023-02-28T07:52:42.086Z,99.99
2023-02-28T07:53:42.062Z,99.99
2023-02-28T07:54:42.055Z,99.99
2023-02-28T07:55:42.020Z,99.99
2023-02-28T07:56:41.987Z,99.99
2023-02-28T07:57:41.954Z,99.99
2023-02-28T07:58:41.931Z,99.99
2023-02-28T07:59:41.940Z,99.99
2023-02-28T08:00:41.958Z,99.99
2023-02-28T08:01:41.838Z,99.99
2023-02-28T08:02:41.826Z,99.99
2023-02-28T08:03:41.796Z,99.99
2023-02-28T08:04:41.841Z,99.99
2023-02-28T08:05:41.741Z,99.99
2023-02-28T08:06:41.721Z,99.99
2023-02-28T08:07:41.704Z,99.99
2023-02-28T08:08:41.664Z,99.91
2023-02-28T08:09:41.631Z,99.82
2023-02-28T08:10:41.641Z,99.99
2023-02-28T08:11:41.576Z,99.99
2023-02-28T08:12:41.560Z,99.99
2023-02-28T08:13:41.535Z,99.77
2023-02-28T08:14:41.506Z,98.87
2023-02-28T08:15:41.504Z,99.77
2023-02-28T08:16:41.489Z,99.01
2023-02-28T08:17:41.433Z,98.82
2023-02-28T08:18:41.416Z,98.35
2023-02-28T08:19:41.367Z,97.74
2023-02-28T08:20:41.358Z,96.78
2023-02-28T08:21:41.325Z,95.74
2023-02-28T08:22:41.298Z,95.69
2023-02-28T08:23:41.293Z,95.60
2023-02-28T08:24:41.248Z,95.88
2023-02-28T08:25:41.223Z,95.36
2023-02-28T08:26:41.201Z,94.37
2023-02-28T08:27:41.170Z,94.37
2023-02-28T08:28:41.140Z,94.51
2023-02-28T08:29:41.125Z,95.36
2023-02-28T08:30:41.095Z,95.27
2023-02-28T08:31:41.140Z,94.46
2023-02-28T08:32:41.244Z,93.89
2023-02-28T08:33:41.053Z,92.75
2023-02-28T08:34:40.985Z,91.94
2023-02-28T08:35:40.995Z,92.04
2023-02-28T08:36:41.001Z,93.46
2023-02-28T08:37:40.918Z,93.84
2023-02-28T08:38:40.889Z,93.08
2023-02-28T08:39:40.863Z,92.66
2023-02-28T08:40:40.836Z,92.37
2023-02-28T08:41:40.885Z,92.75
2023-02-28T08:42:40.793Z,92.13
2023-02-28T08:43:40.770Z,91.19
2023-02-28T08:44:40.745Z,89.81
2023-02-28T08:45:40.793Z,89.24
2023-02-28T08:46:40.682Z,89.43
2023-02-28T08:47:40.699Z,89.58
2023-02-28T08:48:40.638Z,90.24
2023-02-28T08:49:40.615Z,90.66
2023-02-28T08:50:40.580Z,90.09
2023-02-28T08:51:40.560Z,89.62
2023-02-28T08:52:40.583Z,89.43
2023-02-28T08:53:40.551Z,89.81
2023-02-28T08:54:40.476Z,89.53
2023-02-28T08:55:40.456Z,88.81
2023-02-28T08:56:40.432Z,87.76
2023-02-28T08:57:40.406Z,87.15
2023-02-28T08:58:40.377Z,86.77
2023-02-28T08:59:40.385Z,87.24
2023-02-28T09:00:41.062Z,87.91
2023-02-28T09:01:40.307Z,87.48
2023-02-28T09:02:40.283Z,86.91
2023-02-28T09:03:40.299Z,87.01
2023-02-28T09:04:40.224Z,86.77
2023-02-28T09:05:40.203Z,87.53
2023-02-28T09:06:40.174Z,87.34
2023-02-28T09:07:40.149Z,87.48
2023-02-28T09:08:40.128Z,87.95
2023-02-28T09:09:40.111Z,86.63
2023-02-28T09:10:40.076Z,85.77
2023-02-28T09:11:40.068Z,85.01
2023-02-28T09:12:40.038Z,85.86
2023-02-28T09:13:39.999Z,84.87
2023-02-28T09:14:39.981Z,85.16
2023-02-28T09:15:39.960Z,86.63
2023-02-28T09:16:39.977Z,86.05
2023-02-28T09:17:39.904Z,85.44
2023-02-28T09:18:39.901Z,85.72
2023-02-28T09:19:39.915Z,86.49
2023-02-28T09:20:39.824Z,86.30
2023-02-28T09:21:39.814Z,85.82
2023-02-28T09:22:39.789Z,84.97
2023-02-28T09:23:39.764Z,85.44
2023-02-28T09:25:39.708Z,85.44
2023-02-28T09:26:43.417Z,85.06
2023-02-28T09:27:40.267Z,86.11
2023-02-28T09:28:39.627Z,86.30
2023-02-28T09:29:39.613Z,85.72
2023-02-28T09:30:39.612Z,85.35
2023-02-28T09:31:39.557Z,85.72
2023-02-28T09:32:39.540Z,86.39
2023-02-28T09:33:39.514Z,86.30
2023-02-28T09:34:39.535Z,86.96
2023-02-28T09:35:39.455Z,87.01
2023-02-28T09:36:45.076Z,86.15
2023-02-28T09:37:39.408Z,85.11
2023-02-28T09:38:39.375Z,85.11
2023-02-28T09:39:39.366Z,83.49
2023-02-28T09:40:39.326Z,84.29
2023-02-28T09:41:39.308Z,83.49
2023-02-28T09:42:39.284Z,83.49
2023-02-28T09:43:39.268Z,83.39
2023-02-28T09:44:39.231Z,83.01
2023-02-28T09:45:39.203Z,83.39
2023-02-28T09:46:39.235Z,82.58
2023-02-28T09:47:39.222Z,82.01
2023-02-28T09:48:41.119Z,80.11
2023-02-28T09:49:39.122Z,80.40
2023-02-28T09:50:39.094Z,81.06
2023-02-28T09:51:39.056Z,80.55
2023-02-28T09:52:39.036Z,82.29
2023-02-28T09:53:39.100Z,82.24
2023-02-28T09:54:38.994Z,81.52
2023-02-28T09:55:46.623Z,80.29
2023-02-28T09:56:38.940Z,79.33
2023-02-28T09:57:38.906Z,78.25
2023-02-28T09:58:38.905Z,79.01
2023-02-28T09:59:38.887Z,79.73
2023-02-28T10:00:38.891Z,79.63
2023-02-28T10:01:38.853Z,79.83
2023-02-28T10:02:38.807Z,79.92
2023-02-28T10:03:38.779Z,80.44
2023-02-28T10:04:38.856Z,80.44
2023-02-28T10:05:38.722Z,79.16
2023-02-28T10:06:38.686Z,78.53
2023-02-28T10:07:38.672Z,78.25
2023-02-28T10:08:38.648Z,78.16
2023-02-28T10:09:38.624Z,78.10
2023-02-28T10:10:38.598Z,77.87
2023-02-28T10:11:38.573Z,76.12
2023-02-28T10:12:38.548Z,76.65
2023-02-28T10:13:38.525Z,78.55
2023-02-28T10:14:38.496Z,79.12
2023-02-28T10:15:38.564Z,79.12
2023-02-28T10:16:38.455Z,79.50
2023-02-28T10:17:49.312Z,79.22
2023-02-28T10:18:38.407Z,79.03
2023-02-28T10:19:38.384Z,79.44
2023-02-28T10:20:38.382Z,79.44
2023-02-28T10:21:38.334Z,78.82
2023-02-28T10:22:38.301Z,78.44
2023-02-28T10:23:38.288Z,77.45
2023-02-28T10:24:38.259Z,77.68
2023-02-28T10:25:38.242Z,77.55
2023-02-28T10:26:38.209Z,77.64
2023-02-28T10:27:38.194Z,77.36
2023-02-28T10:28:38.178Z,78.11
2023-02-28T10:29:38.146Z,78.11
2023-02-28T10:30:38.119Z,78.36
2023-02-28T10:31:38.098Z,78.36
2023-02-28T10:32:38.081Z,79.69
2023-02-28T10:33:38.054Z,79.79
2023-02-28T10:34:38.023Z,79.54
2023-02-28T10:35:38.012Z,79.12
2023-02-28T10:36:37.980Z,79.44
2023-02-28T10:37:37.964Z,79.20
2023-02-28T10:38:37.936Z,78.77
2023-02-28T10:39:37.906Z,77.24
2023-02-28T10:40:37.889Z,76.90
2023-02-28T10:41:37.880Z,76.33
2023-02-28T10:42:37.864Z,75.62
2023-02-28T10:43:37.824Z,75.34
2023-02-28T10:44:37.790Z,75.64
2023-02-28T10:45:37.788Z,76.59
2023-02-28T10:46:37.897Z,77.36
2023-02-28T10:47:37.728Z,78.21
2023-02-28T10:48:37.695Z,78.34
2023-02-28T10:49:37.678Z,79.01
2023-02-28T10:50:37.688Z,78.63
2023-02-28T10:51:37.665Z,78.67
2023-02-28T10:52:37.624Z,78.29
2023-02-28T10:53:52.505Z,77.11
2023-02-28T10:54:37.566Z,76.54
2023-02-28T10:55:37.553Z,76.69
2023-02-28T10:56:37.529Z,78.06
2023-02-28T10:57:37.506Z,78.29
2023-02-28T10:58:37.479Z,78.10
2023-02-28T10:59:37.458Z,76.57
2023-02-28T11:00:37.439Z,77.24
2023-02-28T11:01:37.447Z,77.24
2023-02-28T11:02:37.525Z,76.67
2023-02-28T11:03:37.370Z,76.16
2023-02-28T11:04:37.379Z,76.06
2023-02-28T11:05:37.329Z,77.39
2023-02-28T11:06:37.348Z,78.25
2023-02-28T11:07:50.567Z,77.55
2023-02-28T11:08:37.254Z,78.02
2023-02-28T11:09:37.254Z,79.25
2023-02-28T11:10:37.647Z,78.74
2023-02-28T11:11:37.229Z,79.44
2023-02-28T11:12:43.410Z,79.25
2023-02-28T11:13:37.161Z,80.49
2023-02-28T11:14:37.126Z,80.05
2023-02-28T11:15:37.115Z,80.00
2023-02-28T11:16:37.083Z,78.59
2023-02-28T11:17:37.065Z,79.25
2023-02-28T11:18:37.043Z,79.44
2023-02-28T11:19:37.051Z,80.02
2023-02-28T11:20:36.994Z,79.16
2023-02-28T11:21:36.977Z,79.31
2023-02-28T11:22:36.961Z,80.74
2023-02-28T11:23:37.952Z,80.83
2023-02-28T11:24:36.906Z,80.77
2023-02-28T11:25:36.902Z,80.11
2023-02-28T11:26:36.867Z,80.11
2023-02-28T11:27:36.854Z,80.58
2023-02-28T11:28:36.870Z,80.40
2023-02-28T11:29:36.809Z,79.86
2023-02-28T11:30:36.795Z,80.05
2023-02-28T11:31:36.799Z,79.58
2023-02-28T11:32:36.829Z,78.44
2023-02-28T11:33:36.719Z,77.49
2023-02-28T11:34:36.713Z,77.26
2023-02-28T11:35:36.704Z,78.53
2023-02-28T11:36:36.662Z,78.44
2023-02-28T11:37:36.650Z,78.53
2023-02-28T11:38:36.643Z,78.40
2023-02-28T11:39:36.599Z,79.44
2023-02-28T11:40:36.569Z,79.73
2023-02-28T11:41:36.562Z,80.11
2023-02-28T11:42:36.541Z,80.72
2023-02-28T11:43:36.526Z,79.20
2023-02-28T11:44:36.502Z,79.49
2023-02-28T11:45:36.471Z,79.20
2023-02-28T11:46:36.473Z,80.05
2023-02-28T11:47:36.439Z,79.30
2023-02-28T11:48:36.427Z,79.54
2023-02-28T11:49:36.396Z,79.44
2023-02-28T11:50:36.382Z,79.25
2023-02-28T11:51:36.401Z,79.16
2023-02-28T11:52:36.349Z,79.25
2023-02-28T11:53:36.317Z,80.49
2023-02-28T11:54:36.464Z,80.55
2023-02-28T11:55:36.298Z,80.35
2023-02-28T11:56:36.252Z,80.68
2023-02-28T11:57:36.250Z,80.30
2023-02-28T11:58:36.224Z,80.40
2023-02-28T11:59:36.212Z,80.11
2023-02-28T12:00:36.180Z,79.35
2023-02-28T12:01:36.188Z,79.92
2023-02-28T12:02:36.190Z,80.44
2023-02-28T12:03:36.202Z,81.38
2023-02-28T12:04:36.155Z,79.35
2023-02-28T12:05:36.093Z,79.11
2023-02-28T12:06:36.064Z,79.11
2023-02-28T12:07:36.055Z,78.53
2023-02-28T12:08:36.037Z,78.16
2023-02-28T12:09:36.020Z,77.92
2023-02-28T12:10:35.994Z,78.59
2023-02-28T12:11:35.981Z,79.16
2023-02-28T12:12:35.954Z,80.40
2023-02-28T12:13:35.941Z,80.40
2023-02-28T12:14:35.919Z,81.58
2023-02-28T12:15:35.931Z,80.63
2023-02-28T12:16:35.915Z,80.02
2023-02-28T12:17:35.874Z,80.40
2023-02-28T12:18:35.841Z,80.02
2023-02-28T12:19:35.831Z,79.92
2023-02-28T12:20:35.809Z,80.40
2023-02-28T12:21:35.792Z,81.01
2023-02-28T12:22:35.778Z,80.82
2023-02-28T12:23:35.754Z,80.24
2023-02-28T12:24:35.742Z,81.44
2023-02-28T12:25:35.764Z,80.21
2023-02-28T12:26:35.738Z,80.40
2023-02-28T12:27:35.693Z,80.49
2023-02-28T12:28:35.654Z,81.06
2023-02-28T12:29:35.651Z,80.30
2023-02-28T12:30:35.619Z,80.21
2023-02-28T12:31:35.621Z,80.26
2023-02-28T12:32:35.653Z,80.87
2023-02-28T12:33:35.591Z,81.63
2023-02-28T12:34:35.541Z,80.30
2023-02-28T12:35:35.593Z,80.93
2023-02-28T12:36:35.504Z,81.73
2023-02-28T12:37:35.509Z,81.82
2023-02-28T12:38:35.466Z,81.25
2023-02-28T12:39:48.329Z,80.55
2023-02-28T12:40:35.426Z,80.74
2023-02-28T12:41:35.413Z,81.30
2023-02-28T12:42:35.404Z,82.39
2023-02-28T12:43:35.376Z,81.82
2023-02-28T12:44:35.353Z,81.44
2023-02-28T12:45:35.445Z,81.73
2023-02-28T12:46:35.410Z,81.67
2023-02-28T12:47:35.311Z,81.10
2023-02-28T12:48:35.284Z,80.91
2023-02-28T12:49:35.253Z,80.53
2023-02-28T12:50:35.236Z,80.87
2023-02-28T12:51:35.213Z,81.48
2023-02-28T12:52:35.204Z,80.49
2023-02-28T12:53:35.174Z,80.82
2023-02-28T12:54:35.160Z,81.01